Global Triumph — V7DU5 — position and weather

sailwx.info

Track history (hours):
 
Tides and Currents Weather Stations Pressure Air Temp Water Temp Dewpoint Dewpoint Depression Visibility Wind Speed Wind Dir Waves Ship Positions

Global Triumph

Last reported at 2014-Feb-03 10:33 UTC. Time now 2014-Dec-22 22:06 UTC.
Position N 30°40' E 122°57'.
Warning: this ship's position is months out of date.

Length 225 m; draft 6.9 m.

Type: Cargo ship. MMSI: 538001709.

Date/timePositionNaut miles runAvg speedWind from/ knotsBaromVisibWave heightAir tempDewpointWater temp
2014-Feb-03 10:33N 30°40' E 122°57'21 8.5
2014-Feb-03 08:06N 30°60' E 122°52'  
2014-Jan-30 14:25N 31°00' E 122°52'  
2014-Jan-26 13:07N 31°17' E 121°50'611.2
2014-Jan-26 12:33N 31°19' E 121°43'9 8.8
2014-Jan-26 11:32N 31°24' E 121°34'9 9.4
2014-Jan-26 10:33N 31°29' E 121°26'1212.0
2014-Jan-26 09:34N 31°38' E 121°15'1512.5
2014-Jan-26 08:23N 31°46' E 121°01'910.9
2014-Jan-26 07:33N 31°52' E 120°53'11 8.3
2014-Jan-26 06:16N 32°01' E 120°46'0 0.0
2014-Jan-26 05:33N 32°01' E 120°46'0 0.0
2014-Jan-26 04:34N 32°01' E 120°46'0 0.0
2014-Jan-26 03:33N 32°01' E 120°46'0 0.0
2014-Jan-26 02:27N 32°01' E 120°46'0 0.0
2014-Jan-26 01:33N 32°01' E 120°46'0 0.0
2014-Jan-26 00:27N 32°01' E 120°46'0 0.0
2014-Jan-25 23:33N 32°01' E 120°46'0 0.0
2014-Jan-25 22:30N 32°01' E 120°46'0 0.0
2014-Jan-25 21:33N 32°01' E 120°46'0 0.0
2014-Jan-25 20:33N 32°01' E 120°46'0 0.0
2014-Jan-25 19:21N 32°01' E 120°46'0 0.0
2014-Jan-25 18:33N 32°01' E 120°46'0 0.0
2014-Jan-25 17:33N 32°01' E 120°46'0 0.0
2014-Jan-25 16:30N 32°01' E 120°46'0 0.0
2014-Jan-25 15:27N 32°01' E 120°46'0 0.0
2014-Jan-25 14:33N 32°01' E 120°46'0 0.0
2014-Jan-25 13:33N 32°01' E 120°46'0 0.0
2014-Jan-25 12:24N 32°01' E 120°46'0 0.0
2014-Jan-25 11:30N 32°01' E 120°46'0 0.0
2014-Jan-25 10:33N 32°01' E 120°46'0 0.0
2014-Jan-25 09:21N 32°01' E 120°46'0 0.0
2014-Jan-25 08:15N 32°01' E 120°46'0 0.0
2014-Jan-25 07:30N 32°01' E 120°46'0 0.0
2014-Jan-25 06:30N 32°01' E 120°46'0 0.0
2014-Jan-25 05:33N 32°01' E 120°46'0 0.0
2014-Jan-25 04:30N 32°01' E 120°46'0 0.0
2014-Jan-25 03:24N 32°01' E 120°46'0 0.0
2014-Jan-25 01:33N 32°01' E 120°46'0 0.0
2014-Jan-25 00:33N 32°01' E 120°46'0 0.0
2014-Jan-24 23:33N 32°01' E 120°46'0 0.0
2014-Jan-24 22:30N 32°01' E 120°46'0 0.0
2014-Jan-24 21:30N 32°01' E 120°46'0 0.0
2014-Jan-24 20:22N 32°01' E 120°46'0 0.0
2014-Jan-24 18:33N 32°01' E 120°46'0 0.0
2014-Jan-24 17:33N 32°01' E 120°46'0 0.0
2014-Jan-24 16:33N 32°01' E 120°46'0 0.0
2014-Jan-24 15:33N 32°01' E 120°46'0 0.0
2014-Jan-24 14:33N 32°01' E 120°46'0 0.0
2014-Jan-24 13:30N 32°01' E 120°46'0 0.0
2014-Jan-24 12:33N 32°01' E 120°46'0 0.0
2014-Jan-24 11:30N 32°01' E 120°46'0 0.0
2014-Jan-24 10:33N 32°01' E 120°46'  
Track history (hours):
 
Tides and Currents Weather Stations Pressure Air Temp Water Temp Dewpoint Dewpoint Depression Visibility Wind Speed Wind Dir Waves Ship Positions

Global Triumph

Last reported at 2014-Feb-03 10:33 UTC. Time now 2014-Dec-22 22:06 UTC.
Position N 30°40' E 122°57'.
Warning: this ship's position is months out of date.

Length 225 m; draft 6.9 m.

Type: Cargo ship. MMSI: 538001709.

Date/timePositionNaut miles runAvg speedWind from/ knotsBaromVisibWave heightAir tempDewpointWater temp
2014-Feb-03 10:33N 30°40' E 122°57'21 8.5
2014-Feb-03 08:06N 30°60' E 122°52'  
2014-Jan-30 14:25N 31°00' E 122°52'  
2014-Jan-26 13:07N 31°17' E 121°50'611.2
2014-Jan-26 12:33N 31°19' E 121°43'9 8.8
2014-Jan-26 11:32N 31°24' E 121°34'9 9.4
2014-Jan-26 10:33N 31°29' E 121°26'1212.0
2014-Jan-26 09:34N 31°38' E 121°15'1512.5
2014-Jan-26 08:23N 31°46' E 121°01'910.9
2014-Jan-26 07:33N 31°52' E 120°53'11 8.3
2014-Jan-26 06:16N 32°01' E 120°46'0 0.0
2014-Jan-26 05:33N 32°01' E 120°46'0 0.0
2014-Jan-26 04:34N 32°01' E 120°46'0 0.0
2014-Jan-26 03:33N 32°01' E 120°46'0 0.0
2014-Jan-26 02:27N 32°01' E 120°46'0 0.0
2014-Jan-26 01:33N 32°01' E 120°46'0 0.0
2014-Jan-26 00:27N 32°01' E 120°46'0 0.0
2014-Jan-25 23:33N 32°01' E 120°46'0 0.0
2014-Jan-25 22:30N 32°01' E 120°46'0 0.0
2014-Jan-25 21:33N 32°01' E 120°46'0 0.0
2014-Jan-25 20:33N 32°01' E 120°46'0 0.0
2014-Jan-25 19:21N 32°01' E 120°46'0 0.0
2014-Jan-25 18:33N 32°01' E 120°46'0 0.0
2014-Jan-25 17:33N 32°01' E 120°46'0 0.0
2014-Jan-25 16:30N 32°01' E 120°46'0 0.0
2014-Jan-25 15:27N 32°01' E 120°46'0 0.0
2014-Jan-25 14:33N 32°01' E 120°46'0 0.0
2014-Jan-25 13:33N 32°01' E 120°46'0 0.0
2014-Jan-25 12:24N 32°01' E 120°46'0 0.0
2014-Jan-25 11:30N 32°01' E 120°46'0 0.0
2014-Jan-25 10:33N 32°01' E 120°46'0 0.0
2014-Jan-25 09:21N 32°01' E 120°46'0 0.0
2014-Jan-25 08:15N 32°01' E 120°46'0 0.0
2014-Jan-25 07:30N 32°01' E 120°46'0 0.0
2014-Jan-25 06:30N 32°01' E 120°46'0 0.0
2014-Jan-25 05:33N 32°01' E 120°46'0 0.0
2014-Jan-25 04:30N 32°01' E 120°46'0 0.0
2014-Jan-25 03:24N 32°01' E 120°46'0 0.0
2014-Jan-25 01:33N 32°01' E 120°46'0 0.0
2014-Jan-25 00:33N 32°01' E 120°46'0 0.0
2014-Jan-24 23:33N 32°01' E 120°46'0 0.0
2014-Jan-24 22:30N 32°01' E 120°46'0 0.0
2014-Jan-24 21:30N 32°01' E 120°46'0 0.0
2014-Jan-24 20:22N 32°01' E 120°46'0 0.0
2014-Jan-24 18:33N 32°01' E 120°46'0 0.0
2014-Jan-24 17:33N 32°01' E 120°46'0 0.0
2014-Jan-24 16:33N 32°01' E 120°46'0 0.0
2014-Jan-24 15:33N 32°01' E 120°46'0 0.0
2014-Jan-24 14:33N 32°01' E 120°46'0 0.0
2014-Jan-24 13:30N 32°01' E 120°46'0 0.0
2014-Jan-24 12:33N 32°01' E 120°46'0 0.0
2014-Jan-24 11:30N 32°01' E 120°46'0 0.0
2014-Jan-24 10:33N 32°01' E 120°46'  

Dump ship's entire track history